West Lexington, Virginia
Current Conditions -  °F | °C
As of 3:55 PM on Thursday 27 Nov 2014 (Local Time) from KHSP Reporting Station
Overcast Overcast  
Wind Chill: -11°   Ceiling: 800
Heat Index: -4°   Visibility: 7mi
Dew Point: -5°   Wind: 16mph
Humidity: 96%   Direction: 290°WNW
Pressure: 29.97"   Gusts: 22mph
Location:  37.7866°N, 79.5193°W
Report Text: KHSP 272055Z AUTO 29014G19KT 7SM BKN008 OVC014 M04/M05 A2997 RMK AO2 60001 T10421048
Loading
Personal Weather Stations






























Interactive Weather Map New forecast layout! Learn more

10-Day Weather Forecast

Advertisements
Track Severe Weather on mobile